createdAt,value
2023-12-31T00:00:48.182Z,8.10
2023-12-31T00:03:14.674Z,8.01
2023-12-31T00:05:42.537Z,8.08
2023-12-31T00:08:09.016Z,7.92
2023-12-31T00:10:35.516Z,8.15
2023-12-31T00:13:02.265Z,8.15
2023-12-31T00:15:28.835Z,8.16
2023-12-31T00:17:55.381Z,8.10
2023-12-31T00:20:21.874Z,8.13
2023-12-31T00:22:49.849Z,8.17
2023-12-31T00:25:16.392Z,8.12
2023-12-31T00:27:42.908Z,7.98
2023-12-31T00:30:10.603Z,8.13
2023-12-31T00:32:37.142Z,8.12
2023-12-31T00:35:03.985Z,8.15
2023-12-31T00:37:30.464Z,8.18
2023-12-31T00:39:58.339Z,8.06
2023-12-31T00:42:24.801Z,8.15
2023-12-31T00:44:51.296Z,8.26
2023-12-31T00:47:17.766Z,8.24
2023-12-31T00:49:44.313Z,8.22
2023-12-31T00:52:10.812Z,8.09
2023-12-31T00:54:37.273Z,8.20
2023-12-31T00:57:05.274Z,8.23
2023-12-31T00:59:31.768Z,8.22
2023-12-31T01:01:58.285Z,8.19
2023-12-31T01:04:24.775Z,8.17
2023-12-31T01:06:51.229Z,7.97
2023-12-31T01:09:17.956Z,8.08
2023-12-31T01:11:44.394Z,8.25
2023-12-31T01:14:12.308Z,8.17
2023-12-31T01:16:38.788Z,8.14
2023-12-31T01:19:05.303Z,8.24
2023-12-31T01:21:31.812Z,8.22
2023-12-31T01:23:58.289Z,8.22
2023-12-31T01:26:24.783Z,8.31
2023-12-31T01:28:51.243Z,8.22
2023-12-31T01:31:22.596Z,8.24
2023-12-31T01:33:49.226Z,8.36
2023-12-31T01:36:15.871Z,8.28
2023-12-31T01:38:42.608Z,8.37
2023-12-31T01:41:10.259Z,8.37
2023-12-31T01:43:37.095Z,8.59
2023-12-31T01:46:03.930Z,8.55
2023-12-31T01:48:31.910Z,8.57
2023-12-31T01:50:58.524Z,8.54
2023-12-31T01:53:25.477Z,8.61
2023-12-31T01:55:53.025Z,8.68
2023-12-31T01:58:19.730Z,8.52
2023-12-31T02:00:46.450Z,8.45
2023-12-31T02:03:13.978Z,8.65
2023-12-31T02:05:42.391Z,8.62
2023-12-31T02:08:08.869Z,8.64
2023-12-31T02:10:35.642Z,8.59
2023-12-31T02:13:02.348Z,8.66
2023-12-31T02:15:32.088Z,8.82
2023-12-31T02:17:59.162Z,8.58
2023-12-31T02:20:25.648Z,8.66
2023-12-31T02:22:53.689Z,8.51
2023-12-31T02:25:23.563Z,8.67
2023-12-31T02:27:51.399Z,8.79
2023-12-31T02:30:18.006Z,8.77
2023-12-31T02:32:44.488Z,8.78
2023-12-31T02:35:11.042Z,8.56
2023-12-31T02:37:37.527Z,8.64
2023-12-31T02:40:04.390Z,8.59
2023-12-31T02:42:31.279Z,8.63
2023-12-31T02:44:59.141Z,8.67
2023-12-31T02:47:25.663Z,8.76
2023-12-31T02:49:52.224Z,8.74
2023-12-31T02:52:18.798Z,8.62
2023-12-31T02:54:45.281Z,8.70
2023-12-31T02:57:11.766Z,8.70
2023-12-31T02:59:38.196Z,8.80
2023-12-31T03:02:06.639Z,8.83
2023-12-31T03:04:33.407Z,8.72
2023-12-31T03:06:59.889Z,8.83
2023-12-31T03:09:26.336Z,8.89
2023-12-31T03:11:52.802Z,8.86
2023-12-31T03:14:19.276Z,8.87
2023-12-31T03:16:45.898Z,8.75
2023-12-31T03:19:13.842Z,8.85
2023-12-31T03:21:40.348Z,8.83
2023-12-31T03:24:07.264Z,8.82
2023-12-31T03:26:33.703Z,8.95
2023-12-31T03:29:00.390Z,8.88
2023-12-31T03:31:26.866Z,8.96
2023-12-31T03:33:53.364Z,8.89
2023-12-31T03:36:21.252Z,8.89
2023-12-31T03:38:49.340Z,8.87
2023-12-31T03:41:16.912Z,8.98
2023-12-31T03:43:43.699Z,8.89
2023-12-31T03:46:10.229Z,8.95
2023-12-31T03:48:38.650Z,8.79
2023-12-31T03:51:05.210Z,8.85
2023-12-31T03:53:33.036Z,8.95
2023-12-31T03:55:59.536Z,8.90
2023-12-31T03:58:26.082Z,8.87
2023-12-31T04:00:52.560Z,8.79
2023-12-31T04:03:19.047Z,8.86
2023-12-31T04:05:45.582Z,9.07
2023-12-31T04:08:12.064Z,9.07
2023-12-31T04:10:39.900Z,8.93
2023-12-31T04:13:06.657Z,8.87
2023-12-31T04:15:33.225Z,8.73
2023-12-31T04:18:01.539Z,8.90
2023-12-31T04:20:28.024Z,8.81
2023-12-31T04:22:54.609Z,8.86
2023-12-31T04:25:21.116Z,8.68
2023-12-31T04:27:48.994Z,8.90
2023-12-31T04:30:15.529Z,8.82
2023-12-31T04:32:42.008Z,8.80
2023-12-31T04:35:08.751Z,8.68
2023-12-31T04:37:35.211Z,8.59
2023-12-31T04:40:01.877Z,8.70
2023-12-31T04:42:29.687Z,8.73
2023-12-31T04:44:57.494Z,8.59
2023-12-31T04:47:23.976Z,8.76
2023-12-31T04:49:50.519Z,8.65
2023-12-31T04:52:17.140Z,8.66
2023-12-31T04:54:43.655Z,8.51
2023-12-31T04:57:10.152Z,8.58
2023-12-31T04:59:36.667Z,8.61
2023-12-31T05:02:04.741Z,8.55
2023-12-31T05:04:31.301Z,8.41
2023-12-31T05:06:58.021Z,8.55
2023-12-31T05:09:24.593Z,8.30
2023-12-31T05:11:51.062Z,8.60
2023-12-31T05:14:17.499Z,8.52
2023-12-31T05:16:44.066Z,8.42
2023-12-31T05:19:11.991Z,8.41
2023-12-31T05:21:38.763Z,8.37
2023-12-31T05:24:05.479Z,8.31
2023-12-31T05:26:31.939Z,8.42
2023-12-31T05:28:58.421Z,8.31
2023-12-31T05:31:24.925Z,8.44
2023-12-31T05:33:51.434Z,8.28
2023-12-31T05:36:19.299Z,8.39
2023-12-31T05:38:45.737Z,8.36
2023-12-31T05:41:12.195Z,8.37
2023-12-31T05:43:38.700Z,8.23
2023-12-31T05:46:05.183Z,8.39
2023-12-31T05:48:31.944Z,8.28
2023-12-31T05:50:59.300Z,8.43
2023-12-31T05:53:27.107Z,8.33
2023-12-31T05:55:53.579Z,8.37
2023-12-31T05:58:20.056Z,8.31
2023-12-31T06:00:46.632Z,8.31
2023-12-31T06:03:13.207Z,8.28
2023-12-31T06:05:39.720Z,8.31
2023-12-31T06:08:06.795Z,8.32
2023-12-31T06:10:34.628Z,8.39
2023-12-31T06:13:01.330Z,8.41
2023-12-31T06:15:27.883Z,8.28
2023-12-31T06:17:54.389Z,8.36
2023-12-31T06:20:21.065Z,8.50
2023-12-31T06:22:47.604Z,8.51
2023-12-31T06:25:14.220Z,8.60
2023-12-31T06:27:42.089Z,8.65
2023-12-31T06:30:08.918Z,8.73
2023-12-31T06:32:35.599Z,8.78
2023-12-31T06:35:02.513Z,8.64
2023-12-31T06:37:29.132Z,8.58
2023-12-31T06:39:55.602Z,8.66
2023-12-31T06:42:22.073Z,8.62
2023-12-31T06:44:49.872Z,8.62
2023-12-31T06:47:16.328Z,8.58
2023-12-31T06:49:42.835Z,8.61
2023-12-31T06:52:09.296Z,8.72
2023-12-31T06:54:35.743Z,8.66
2023-12-31T06:57:02.233Z,8.63
2023-12-31T06:59:28.666Z,8.61
2023-12-31T07:01:56.554Z,8.68
2023-12-31T07:04:23.083Z,8.65
2023-12-31T07:06:49.520Z,8.48
2023-12-31T07:09:15.968Z,8.63
2023-12-31T07:11:42.426Z,8.54
2023-12-31T07:14:08.891Z,8.43
2023-12-31T07:16:35.368Z,8.61
2023-12-31T07:19:03.481Z,8.65
2023-12-31T07:21:30.019Z,8.60
2023-12-31T07:23:57.300Z,8.62
2023-12-31T07:26:24.085Z,8.63
2023-12-31T07:28:50.665Z,8.59
2023-12-31T07:31:17.196Z,8.69
2023-12-31T07:33:43.895Z,8.61
2023-12-31T07:36:11.758Z,8.78
2023-12-31T07:38:38.593Z,8.73
2023-12-31T07:41:05.098Z,8.54
2023-12-31T07:43:32.666Z,8.84
2023-12-31T07:45:59.205Z,8.78
2023-12-31T07:48:25.793Z,8.79
2023-12-31T07:50:52.260Z,8.82
2023-12-31T07:53:20.127Z,8.83
2023-12-31T07:55:46.626Z,8.78
2023-12-31T07:58:13.404Z,8.82
2023-12-31T08:00:39.921Z,8.75
2023-12-31T08:03:06.678Z,8.83
2023-12-31T08:05:33.400Z,8.86
2023-12-31T08:07:59.925Z,8.97
2023-12-31T08:10:27.748Z,8.75
2023-12-31T08:12:54.216Z,8.92
2023-12-31T08:15:20.657Z,8.87
2023-12-31T08:17:47.173Z,8.77
2023-12-31T08:20:13.631Z,8.85
2023-12-31T08:22:40.077Z,8.87
2023-12-31T08:25:06.978Z,8.83
2023-12-31T08:27:34.812Z,8.63
2023-12-31T08:30:01.306Z,8.76
2023-12-31T08:32:28.004Z,8.79
2023-12-31T08:34:54.477Z,8.98
2023-12-31T08:37:20.959Z,8.85
2023-12-31T08:39:47.517Z,8.90
2023-12-31T08:42:13.944Z,8.92
2023-12-31T08:44:53.672Z,8.93
2023-12-31T08:47:28.197Z,8.91
2023-12-31T08:49:54.690Z,8.98
2023-12-31T08:52:21.231Z,8.86
2023-12-31T08:54:47.716Z,9.04
2023-12-31T08:57:14.156Z,8.94
2023-12-31T08:59:41.958Z,8.86
2023-12-31T09:02:08.415Z,8.78
2023-12-31T09:04:34.881Z,8.99
2023-12-31T09:07:01.513Z,9.07
2023-12-31T09:09:27.988Z,8.98
2023-12-31T09:11:54.431Z,8.85
2023-12-31T09:14:20.879Z,9.00
2023-12-31T09:16:48.729Z,9.06
2023-12-31T09:19:15.388Z,9.08
2023-12-31T09:21:41.874Z,9.01
2023-12-31T09:24:08.310Z,9.11
2023-12-31T09:26:34.754Z,8.94
2023-12-31T09:29:01.240Z,9.15
2023-12-31T09:31:27.692Z,9.15
2023-12-31T09:33:55.580Z,9.19
2023-12-31T09:36:22.050Z,9.12
2023-12-31T09:38:48.561Z,9.20
2023-12-31T09:41:17.663Z,9.10
2023-12-31T09:43:44.570Z,9.20
2023-12-31T09:46:12.033Z,9.31
2023-12-31T09:48:38.789Z,9.22
2023-12-31T09:51:06.686Z,9.31
2023-12-31T09:53:33.690Z,9.43
2023-12-31T09:56:00.645Z,9.44
2023-12-31T09:58:27.143Z,9.47
2023-12-31T10:00:53.675Z,9.53
2023-12-31T10:03:20.937Z,9.62
2023-12-31T10:05:50.692Z,9.38
2023-12-31T10:08:19.617Z,9.61
2023-12-31T10:10:46.323Z,9.47
2023-12-31T10:13:14.358Z,9.73
2023-12-31T10:15:40.889Z,9.85
2023-12-31T10:18:08.450Z,9.82
2023-12-31T10:20:35.947Z,9.74
2023-12-31T10:23:02.840Z,9.78
2023-12-31T10:25:30.959Z,9.82
2023-12-31T10:27:57.424Z,9.74
2023-12-31T10:30:23.903Z,9.76
2023-12-31T10:32:50.493Z,9.81
2023-12-31T10:35:19.495Z,9.65
2023-12-31T10:37:45.977Z,9.73
2023-12-31T10:40:19.272Z,10.00
2023-12-31T10:42:49.170Z,9.99
2023-12-31T10:45:17.432Z,10.21
2023-12-31T10:47:44.983Z,9.82
2023-12-31T10:50:14.086Z,10.09
2023-12-31T10:52:42.163Z,10.23
2023-12-31T10:55:09.102Z,10.31
2023-12-31T10:57:35.543Z,10.33
2023-12-31T11:00:03.642Z,10.29
2023-12-31T11:02:30.305Z,10.12
2023-12-31T11:04:57.683Z,10.27
2023-12-31T11:07:24.803Z,10.31
2023-12-31T11:09:51.379Z,10.30
2023-12-31T11:12:19.864Z,10.29
2023-12-31T11:14:47.836Z,10.19
2023-12-31T11:17:31.786Z,10.22
2023-12-31T11:20:14.084Z,10.08
2023-12-31T11:22:47.315Z,10.12
2023-12-31T11:25:16.421Z,10.10
2023-12-31T11:27:42.917Z,10.23
2023-12-31T11:30:09.681Z,10.21
2023-12-31T11:32:38.233Z,10.27
2023-12-31T11:35:05.159Z,10.16
2023-12-31T11:37:35.995Z,10.37
2023-12-31T11:40:02.446Z,10.27
2023-12-31T11:42:30.441Z,10.01
2023-12-31T11:44:56.875Z,10.60
2023-12-31T11:47:24.161Z,10.40
2023-12-31T11:49:53.150Z,10.47
2023-12-31T11:52:20.506Z,10.34
2023-12-31T11:54:46.986Z,10.36
2023-12-31T11:57:14.072Z,10.29
2023-12-31T11:59:41.029Z,10.41
2023-12-31T12:02:08.152Z,10.31
2023-12-31T12:04:34.796Z,10.35
2023-12-31T12:07:03.014Z,10.37
2023-12-31T12:09:31.415Z,10.40
2023-12-31T12:11:58.317Z,10.33
2023-12-31T12:14:24.757Z,10.49
2023-12-31T12:16:51.213Z,10.25
2023-12-31T12:19:17.821Z,10.55
2023-12-31T12:21:44.262Z,10.37
2023-12-31T12:24:12.115Z,10.43
2023-12-31T12:26:38.639Z,10.43
2023-12-31T12:29:05.089Z,10.53
2023-12-31T12:31:35.183Z,10.54
2023-12-31T12:34:03.593Z,10.38
2023-12-31T12:36:30.078Z,10.52
2023-12-31T12:38:56.543Z,10.34
2023-12-31T12:41:24.620Z,10.50
2023-12-31T12:43:51.562Z,10.66
2023-12-31T12:46:18.276Z,10.58
2023-12-31T12:48:48.099Z,10.21
2023-12-31T12:51:14.542Z,10.58
2023-12-31T12:53:41.147Z,10.50
2023-12-31T12:56:07.619Z,10.49
2023-12-31T12:58:35.436Z,10.62
2023-12-31T13:01:01.987Z,10.70
2023-12-31T13:03:28.487Z,10.50
2023-12-31T13:05:55.076Z,10.50
2023-12-31T13:08:21.600Z,10.56
2023-12-31T13:10:48.067Z,10.54
2023-12-31T13:13:14.562Z,10.62
2023-12-31T13:15:42.500Z,10.66
2023-12-31T13:18:09.178Z,10.79
2023-12-31T13:20:35.846Z,10.50
2023-12-31T13:23:02.705Z,10.56
2023-12-31T13:25:29.613Z,10.59
2023-12-31T13:27:56.471Z,10.53
2023-12-31T13:30:24.210Z,10.39
2023-12-31T13:32:52.702Z,10.37
2023-12-31T13:35:20.515Z,10.32
2023-12-31T13:37:46.982Z,10.39
2023-12-31T13:40:13.456Z,10.52
2023-12-31T13:42:40.403Z,10.38
2023-12-31T13:45:07.358Z,10.26
2023-12-31T13:47:33.915Z,10.01
2023-12-31T13:50:01.897Z,9.60
2023-12-31T13:52:28.546Z,9.51
2023-12-31T13:54:54.997Z,9.20
2023-12-31T13:57:21.441Z,9.31
2023-12-31T13:59:47.949Z,9.54
2023-12-31T14:02:14.483Z,9.63
2023-12-31T14:04:41.388Z,9.65
2023-12-31T14:07:10.714Z,9.74
2023-12-31T14:09:37.915Z,9.85
2023-12-31T14:12:05.224Z,9.77
2023-12-31T14:14:31.692Z,9.75
2023-12-31T14:16:58.183Z,9.35
2023-12-31T14:19:29.817Z,9.39
2023-12-31T14:21:59.234Z,9.20
2023-12-31T14:24:28.765Z,8.88
2023-12-31T14:26:55.208Z,8.87
2023-12-31T14:29:21.761Z,8.65
2023-12-31T14:31:48.397Z,8.81
2023-12-31T14:34:15.456Z,8.65
2023-12-31T14:36:42.023Z,8.65
2023-12-31T14:39:08.497Z,8.70
2023-12-31T14:41:36.389Z,8.62
2023-12-31T14:44:03.001Z,8.63
2023-12-31T14:46:29.451Z,8.59
2023-12-31T14:48:55.979Z,8.66
2023-12-31T14:51:22.505Z,8.77
2023-12-31T14:53:48.973Z,8.73
2023-12-31T14:56:18.253Z,8.73
2023-12-31T14:58:46.102Z,8.77
2023-12-31T15:01:12.738Z,8.90
2023-12-31T15:03:39.319Z,8.82
2023-12-31T15:06:05.853Z,8.69
2023-12-31T15:08:32.455Z,8.79
2023-12-31T15:10:59.178Z,8.69
2023-12-31T15:13:25.657Z,8.76
2023-12-31T15:15:53.463Z,8.69
2023-12-31T15:18:20.040Z,8.78
2023-12-31T15:20:46.489Z,8.68
2023-12-31T15:23:12.996Z,8.91
2023-12-31T15:25:39.560Z,8.93
2023-12-31T15:28:06.565Z,9.11
2023-12-31T15:30:33.117Z,8.98
2023-12-31T15:33:01.095Z,8.81
2023-12-31T15:35:27.598Z,9.03
2023-12-31T15:38:00.486Z,8.97
2023-12-31T15:40:27.726Z,8.89
2023-12-31T15:42:54.298Z,8.93
2023-12-31T15:45:20.911Z,8.89
2023-12-31T15:47:47.404Z,8.89
2023-12-31T15:50:15.483Z,9.00
2023-12-31T15:52:41.953Z,8.91
2023-12-31T15:55:08.854Z,8.86
2023-12-31T15:57:35.303Z,8.88
2023-12-31T16:00:01.806Z,8.80
2023-12-31T16:02:28.325Z,8.87
2023-12-31T16:04:54.808Z,8.82
2023-12-31T16:07:22.768Z,8.81
2023-12-31T16:09:49.341Z,9.10
2023-12-31T16:12:15.887Z,9.15
2023-12-31T16:14:42.335Z,8.94
2023-12-31T16:17:08.817Z,8.95
2023-12-31T16:19:35.326Z,8.88
2023-12-31T16:22:01.776Z,9.24
2023-12-31T16:24:29.579Z,9.29
2023-12-31T16:26:56.049Z,9.23
2023-12-31T16:29:22.498Z,9.13
2023-12-31T16:31:48.979Z,9.13
2023-12-31T16:34:15.469Z,8.98
2023-12-31T16:36:41.948Z,9.05
2023-12-31T16:39:08.431Z,9.02
2023-12-31T16:41:36.265Z,8.92
2023-12-31T16:44:02.764Z,8.83
2023-12-31T16:46:29.392Z,8.77
2023-12-31T16:48:56.019Z,8.70
2023-12-31T16:51:22.584Z,8.60
2023-12-31T16:53:49.044Z,8.68
2023-12-31T16:56:15.631Z,8.59
2023-12-31T16:58:43.510Z,8.78
2023-12-31T17:01:10.094Z,8.69
2023-12-31T17:03:36.561Z,8.63
2023-12-31T17:06:03.080Z,8.59
2023-12-31T17:08:29.607Z,8.50
2023-12-31T17:10:56.102Z,8.43
2023-12-31T17:13:22.736Z,8.62
2023-12-31T17:15:50.593Z,8.62
2023-12-31T17:18:17.172Z,8.49
2023-12-31T17:20:43.760Z,8.54
2023-12-31T17:23:10.265Z,8.35
2023-12-31T17:25:36.771Z,8.32
2023-12-31T17:28:03.619Z,8.60
2023-12-31T17:30:30.197Z,8.36
2023-12-31T17:32:58.086Z,8.65
2023-12-31T17:35:24.607Z,8.19
2023-12-31T17:37:51.138Z,8.39
2023-12-31T17:40:17.673Z,8.50
2023-12-31T17:42:44.094Z,8.62
2023-12-31T17:45:10.667Z,8.45
2023-12-31T17:47:37.145Z,8.58
2023-12-31T17:50:05.780Z,8.62
2023-12-31T17:52:32.335Z,8.42
2023-12-31T17:54:58.931Z,8.50
2023-12-31T17:57:25.452Z,8.63
2023-12-31T17:59:51.952Z,8.42
2023-12-31T18:02:18.402Z,8.48
2023-12-31T18:04:47.088Z,8.49
2023-12-31T18:07:15.188Z,8.61
2023-12-31T18:09:41.656Z,8.91
2023-12-31T18:12:08.161Z,8.55
2023-12-31T18:14:34.617Z,8.71
2023-12-31T18:17:01.084Z,8.49
2023-12-31T18:19:27.641Z,8.57
2023-12-31T18:21:54.140Z,8.83
2023-12-31T18:24:21.965Z,8.81
2023-12-31T18:26:48.384Z,8.64
2023-12-31T18:29:14.877Z,8.67
2023-12-31T18:31:41.414Z,8.67
2023-12-31T18:34:07.929Z,8.60
2023-12-31T18:36:34.390Z,8.65
2023-12-31T18:39:00.841Z,8.61
2023-12-31T18:41:28.653Z,8.45
2023-12-31T18:43:55.181Z,8.55
2023-12-31T18:46:22.238Z,8.37
2023-12-31T18:48:48.922Z,8.52
2023-12-31T18:51:15.480Z,8.42
2023-12-31T18:53:41.947Z,8.25
2023-12-31T18:56:09.656Z,8.30
2023-12-31T18:58:37.518Z,8.41
2023-12-31T19:01:04.228Z,8.32
2023-12-31T19:03:30.732Z,8.29
2023-12-31T19:05:57.218Z,8.16
2023-12-31T19:08:23.665Z,8.24
2023-12-31T19:10:50.156Z,8.23
2023-12-31T19:13:16.678Z,8.24
2023-12-31T19:15:44.631Z,8.24
2023-12-31T19:18:11.147Z,8.33
2023-12-31T19:20:37.628Z,8.47
2023-12-31T19:23:04.373Z,8.57
2023-12-31T19:25:30.976Z,8.40
2023-12-31T19:27:57.444Z,8.28
2023-12-31T19:30:23.916Z,8.30
2023-12-31T19:32:51.781Z,8.45
2023-12-31T19:35:18.289Z,8.35
2023-12-31T19:37:44.761Z,8.42
2023-12-31T19:40:12.049Z,8.40
2023-12-31T19:42:38.501Z,8.55
2023-12-31T19:45:05.422Z,8.31
2023-12-31T19:47:31.938Z,8.43
2023-12-31T19:50:00.045Z,8.54
2023-12-31T19:52:26.804Z,8.42
2023-12-31T19:54:53.282Z,8.56
2023-12-31T19:57:19.821Z,8.29
2023-12-31T19:59:46.272Z,8.40
2023-12-31T20:02:12.786Z,8.34
2023-12-31T20:04:39.290Z,8.47
2023-12-31T20:07:07.107Z,8.60
2023-12-31T20:09:33.561Z,8.44
2023-12-31T20:12:00.033Z,8.59
2023-12-31T20:14:26.497Z,8.39
2023-12-31T20:16:52.955Z,8.47
2023-12-31T20:19:19.500Z,8.37
2023-12-31T20:21:45.962Z,8.47
2023-12-31T20:24:13.811Z,8.68
2023-12-31T20:26:40.235Z,8.51
2023-12-31T20:29:06.710Z,8.60
2023-12-31T20:31:33.219Z,8.57
2023-12-31T20:33:59.784Z,8.75
2023-12-31T20:36:26.281Z,8.39
2023-12-31T20:38:52.750Z,8.59
2023-12-31T20:41:20.559Z,8.54
2023-12-31T20:43:47.054Z,8.59
2023-12-31T20:46:13.836Z,8.60
2023-12-31T20:48:40.329Z,8.42
2023-12-31T20:51:06.790Z,8.59
2023-12-31T20:53:33.239Z,8.51
2023-12-31T20:55:59.721Z,8.40
2023-12-31T20:58:27.599Z,8.40
2023-12-31T21:00:54.219Z,8.69
2023-12-31T21:03:20.748Z,8.54
2023-12-31T21:05:47.303Z,8.58
2023-12-31T21:08:13.782Z,8.42
2023-12-31T21:10:40.272Z,8.36
2023-12-31T21:13:07.096Z,8.43
2023-12-31T21:15:35.060Z,8.21
2023-12-31T21:18:01.733Z,8.40
2023-12-31T21:20:28.271Z,8.20
2023-12-31T21:22:54.838Z,8.38
2023-12-31T21:25:21.303Z,8.48
2023-12-31T21:27:47.735Z,8.29
2023-12-31T21:30:14.411Z,8.29
2023-12-31T21:32:42.533Z,8.35
2023-12-31T21:35:09.255Z,8.27
2023-12-31T21:37:35.791Z,8.40
2023-12-31T21:40:02.260Z,8.48
2023-12-31T21:42:28.705Z,8.35
2023-12-31T21:44:55.178Z,8.37
2023-12-31T21:47:21.716Z,8.25
2023-12-31T21:49:49.608Z,8.28
2023-12-31T21:52:16.078Z,8.27
2023-12-31T21:54:42.514Z,8.31
2023-12-31T21:57:09.049Z,8.37
2023-12-31T21:59:35.530Z,8.33
2023-12-31T22:02:02.091Z,8.39
2023-12-31T22:04:29.236Z,8.28
2023-12-31T22:06:57.278Z,8.19
2023-12-31T22:09:24.543Z,8.19
2023-12-31T22:11:51.014Z,8.08
2023-12-31T22:14:17.470Z,8.34
2023-12-31T22:16:43.984Z,7.99
2023-12-31T22:19:10.600Z,8.12
2023-12-31T22:21:37.231Z,8.19
2023-12-31T22:24:05.404Z,8.17
2023-12-31T22:26:31.844Z,8.15
2023-12-31T22:28:58.348Z,8.18
2023-12-31T22:31:24.825Z,8.28
2023-12-31T22:33:51.337Z,8.22
2023-12-31T22:36:17.846Z,8.10
2023-12-31T22:38:44.314Z,8.38
2023-12-31T22:41:12.148Z,8.06
2023-12-31T22:43:38.794Z,8.40
2023-12-31T22:46:05.293Z,8.27
2023-12-31T22:48:32.017Z,8.15
2023-12-31T22:50:58.598Z,8.13
2023-12-31T22:53:25.024Z,8.32
2023-12-31T22:55:51.523Z,8.29
2023-12-31T22:58:19.435Z,8.42
2023-12-31T23:00:45.997Z,8.17
2023-12-31T23:03:12.510Z,8.20
2023-12-31T23:05:39.007Z,8.16
2023-12-31T23:08:05.980Z,8.17
2023-12-31T23:10:32.778Z,8.03
2023-12-31T23:13:00.171Z,8.18
2023-12-31T23:15:29.924Z,8.16
2023-12-31T23:17:56.450Z,8.14
2023-12-31T23:20:23.643Z,8.09
2023-12-31T23:22:52.867Z,8.18
2023-12-31T23:25:19.468Z,8.19
2023-12-31T23:27:45.916Z,8.09
2023-12-31T23:30:12.988Z,8.01
2023-12-31T23:32:40.855Z,8.10
2023-12-31T23:35:07.592Z,8.06
2023-12-31T23:37:34.238Z,8.06
2023-12-31T23:40:00.700Z,8.08
2023-12-31T23:42:27.916Z,8.02
2023-12-31T23:44:54.408Z,8.02
2023-12-31T23:47:20.920Z,8.27
2023-12-31T23:49:48.821Z,8.09
2023-12-31T23:52:15.354Z,8.11
2023-12-31T23:54:43.850Z,8.32
2023-12-31T23:57:11.046Z,8.20
2023-12-31T23:59:37.494Z,8.06
